Time;durP1;ratioP1;P1;durP2;ratioP2;P2;SDS_P1;SDS_P2;PMS_P1;PMS_P2;Temp;Humidity;BMP_temperature;BMP_pressure;BME280_temperature;BME280_humidity;BME280_pressure;Samples;Min_cycle;Max_cycle;Signal;HPM_P1;HPM_P2
2024/01/01 04:02:39;;;;;;;12.65;3.50;;;7.00;99.90;;;;;;4954995;23;20047;-79
2024/01/01 04:05:06;;;;;;;18.90;4.72;;;6.90;99.90;;;;;;4955077;28;20106;-81
2024/01/01 04:07:33;;;;;;;9.27;2.83;;;7.00;99.90;;;;;;4954861;28;20058;-80
2024/01/01 04:09:58;;;;;;;13.15;3.50;;;7.00;99.90;;;;;;4955084;28;20394;-79
2024/01/01 04:12:24;;;;;;;10.93;3.42;;;7.00;99.90;;;;;;4954747;29;20040;-80
2024/01/01 04:14:50;;;;;;;12.55;3.20;;;7.00;99.90;;;;;;4955028;28;20046;-80
2024/01/01 04:17:15;;;;;;;12.27;3.42;;;6.90;99.90;;;;;;4953652;29;20040;-79
2024/01/01 04:19:44;;;;;;;13.70;3.20;;;6.90;99.90;;;;;;4955194;28;20047;-78
2024/01/01 04:22:10;;;;;;;11.73;3.15;;;6.90;99.90;;;;;;4953563;28;20051;-79
2024/01/01 04:24:36;;;;;;;9.15;3.15;;;6.90;99.90;;;;;;4954977;28;20047;-78
2024/01/01 04:27:02;;;;;;;9.68;3.47;;;6.90;99.90;;;;;;4953481;28;20051;-79
2024/01/01 04:29:28;;;;;;;11.98;3.40;;;6.90;99.90;;;;;;4953628;28;20053;-77
2024/01/01 04:31:53;;;;;;;17.02;3.97;;;6.90;99.90;;;;;;4954364;28;20039;-80
2024/01/01 04:34:19;;;;;;;9.90;2.55;;;6.80;99.90;;;;;;4954573;29;20043;-79
2024/01/01 04:36:45;;;;;;;15.65;3.58;;;6.90;99.90;;;;;;4954949;28;20050;-80
2024/01/01 04:39:10;;;;;;;10.68;2.40;;;6.90;99.90;;;;;;4953524;28;20480;-81
2024/01/01 04:41:36;;;;;;;13.25;3.80;;;7.00;99.90;;;;;;4954305;28;20043;-77
2024/01/01 04:44:02;;;;;;;14.80;3.70;;;6.90;99.90;;;;;;4954730;28;20046;-79
2024/01/01 04:46:28;;;;;;;17.02;4.20;;;6.90;99.90;;;;;;4956196;28;20039;-79
2024/01/01 04:48:53;;;;;;;16.23;3.70;;;6.90;99.90;;;;;;4956675;28;20051;-79
2024/01/01 04:51:19;;;;;;;12.40;3.78;;;6.80;99.90;;;;;;4957625;29;20046;-78
2024/01/01 04:53:45;;;;;;;17.58;4.20;;;6.80;99.90;;;;;;4956797;28;20058;-79
2024/01/01 04:56:11;;;;;;;14.68;3.45;;;6.90;99.90;;;;;;4940598;29;20055;-79
2024/01/01 04:58:37;;;;;;;15.02;4.45;;;6.80;99.90;;;;;;4957999;29;20043;-80
2024/01/01 05:01:02;;;;;;;13.02;4.03;;;6.90;99.90;;;;;;4957760;28;20039;-80
2024/01/01 05:03:28;;;;;;;13.60;2.83;;;6.90;99.90;;;;;;4956220;28;20044;-79
2024/01/01 05:05:54;;;;;;;9.57;3.58;;;6.90;99.90;;;;;;4957729;28;20035;-80
2024/01/01 05:08:19;;;;;;;13.15;4.43;;;6.90;99.90;;;;;;4957750;28;20031;-79
2024/01/01 05:10:45;;;;;;;20.13;3.85;;;6.90;99.90;;;;;;4957459;28;20439;-79
2024/01/01 05:13:11;;;;;;;12.85;3.75;;;6.90;99.90;;;;;;4957715;29;20365;-81
2024/01/01 05:15:38;;;;;;;12.43;2.90;;;6.90;99.90;;;;;;4957652;28;20372;-80
2024/01/01 05:18:05;;;;;;;7.63;3.28;;;6.90;99.90;;;;;;4956129;28;20511;-79
2024/01/01 05:20:30;;;;;;;22.98;3.95;;;6.90;99.90;;;;;;4957419;28;20047;-80
2024/01/01 05:22:56;;;;;;;13.52;3.08;;;7.00;99.90;;;;;;4957531;28;20483;-81
2024/01/01 05:25:22;;;;;;;17.33;4.57;;;7.00;99.90;;;;;;4957007;28;20043;-79
2024/01/01 05:27:48;;;;;;;15.55;3.10;;;7.00;99.90;;;;;;4957739;28;20101;-79
2024/01/01 05:30:14;;;;;;;13.20;3.50;;;7.00;99.90;;;;;;4957132;28;20474;-79
2024/01/01 05:32:39;;;;;;;9.55;3.20;;;7.10;99.90;;;;;;4957351;28;20046;-77
2024/01/01 05:35:06;;;;;;;16.88;4.30;;;7.00;99.90;;;;;;4940888;29;20379;-80
2024/01/01 05:37:32;;;;;;;12.60;3.22;;;7.10;99.90;;;;;;4957774;28;20081;-77
2024/01/01 05:39:58;;;;;;;13.15;4.18;;;7.10;99.90;;;;;;4957204;28;20070;-77
2024/01/01 05:42:23;;;;;;;13.80;3.28;;;7.10;99.90;;;;;;4955401;28;20050;-79
2024/01/01 05:44:49;;;;;;;16.65;3.63;;;7.10;99.90;;;;;;4957094;28;20043;-80
2024/01/01 05:47:15;;;;;;;9.93;2.90;;;7.10;99.90;;;;;;4957024;28;20498;-79
2024/01/01 05:49:40;;;;;;;10.77;3.15;;;7.10;99.90;;;;;;4955691;28;20086;-78
2024/01/01 05:52:06;;;;;;;15.93;3.63;;;7.20;99.90;;;;;;4955503;28;20043;-78
2024/01/01 05:54:31;;;;;;;15.85;3.92;;;7.10;99.90;;;;;;4956822;28;20046;-81
2024/01/01 05:56:57;;;;;;;13.65;3.53;;;7.10;99.90;;;;;;4956591;28;20244;-79
2024/01/01 05:59:23;;;;;;;16.40;3.10;;;7.10;99.90;;;;;;4954678;28;20058;-77
2024/01/01 06:01:48;;;;;;;17.83;3.65;;;7.10;99.90;;;;;;4956491;28;20038;-79
2024/01/01 06:04:14;;;;;;;10.73;3.78;;;7.10;99.90;;;;;;4956424;28;20050;-77
2024/01/01 06:06:40;;;;;;;17.38;3.30;;;7.10;99.90;;;;;;4955162;28;20045;-77
2024/01/01 06:09:05;;;;;;;14.73;3.22;;;7.10;99.90;;;;;;4956737;28;20039;-78
2024/01/01 06:11:31;;;;;;;12.15;2.90;;;7.10;99.90;;;;;;4956582;29;20114;-81
2024/01/01 06:13:59;;;;;;;20.40;7.55;;;7.10;99.90;;;;;;4939217;29;20078;-79
2024/01/01 06:16:25;;;;;;;14.60;2.80;;;7.20;99.90;;;;;;4956143;29;20094;-80
2024/01/01 06:18:51;;;;;;;20.45;3.80;;;7.20;99.90;;;;;;4956452;28;20031;-77
2024/01/01 06:21:17;;;;;;;11.07;3.00;;;7.20;99.90;;;;;;4956056;28;20051;-79
2024/01/01 06:23:46;;;;;;;15.93;3.17;;;7.20;99.90;;;;;;4956330;28;20140;-81
2024/01/01 06:26:13;;;;;;;16.52;3.60;;;7.10;99.90;;;;;;4956001;28;20050;-79
2024/01/01 06:28:39;;;;;;;16.83;4.45;;;7.20;99.90;;;;;;4954782;29;20491;-80
2024/01/01 06:31:05;;;;;;;12.40;2.92;;;7.20;99.90;;;;;;4956098;28;20051;-80
2024/01/01 06:33:31;;;;;;;15.15;3.80;;;7.20;99.90;;;;;;4956154;28;20039;-80
2024/01/01 06:35:57;;;;;;;15.48;3.28;;;7.20;99.90;;;;;;4956194;28;20046;-78
2024/01/01 06:38:22;;;;;;;10.68;3.58;;;7.20;99.90;;;;;;4956113;28;20074;-77
2024/01/01 06:40:48;;;;;;;13.00;3.10;;;7.20;99.90;;;;;;4955845;28;20043;-80
2024/01/01 06:43:14;;;;;;;15.75;3.33;;;7.20;99.90;;;;;;4955849;28;20051;-77
2024/01/01 06:45:40;;;;;;;12.70;3.17;;;7.20;99.90;;;;;;4955128;29;20105;-79
2024/01/01 06:48:06;;;;;;;13.00;2.40;;;7.20;99.90;;;;;;4954838;28;20054;-77
2024/01/01 06:50:31;;;;;;;12.80;3.03;;;7.20;99.90;;;;;;4954387;28;20511;-77
2024/01/01 06:52:57;;;;;;;12.07;2.90;;;7.20;99.90;;;;;;4955783;28;20042;-80
2024/01/01 06:55:23;;;;;;;19.67;3.58;;;7.30;99.90;;;;;;4954699;28;20518;-79
2024/01/01 06:57:49;;;;;;;15.68;3.05;;;7.20;99.90;;;;;;4955779;28;20399;-78
2024/01/01 07:00:15;;;;;;;12.63;3.17;;;7.20;99.90;;;;;;4955487;28;20066;-78
2024/01/01 07:02:41;;;;;;;11.35;3.28;;;7.20;99.90;;;;;;4955617;28;20035;-77
2024/01/01 07:05:07;;;;;;;9.32;2.55;;;7.30;99.90;;;;;;4954307;28;20074;-77
2024/01/01 07:07:33;;;;;;;14.10;3.25;;;7.30;99.90;;;;;;4955748;28;20423;-76
2024/01/01 07:09:59;;;;;;;12.15;2.78;;;7.30;99.90;;;;;;4953363;28;20039;-77
2024/01/01 07:12:27;;;;;;;10.90;3.35;;;7.20;99.90;;;;;;4955521;28;20445;-78
2024/01/01 07:14:56;;;;;;;14.30;3.03;;;7.30;99.90;;;;;;4954056;28;20035;-78
2024/01/01 07:17:22;;;;;;;11.98;2.53;;;7.30;99.90;;;;;;4955402;28;20115;-76
2024/01/01 07:19:47;;;;;;;11.82;3.00;;;7.30;99.90;;;;;;4954322;29;20043;-78
2024/01/01 07:22:13;;;;;;;11.38;2.33;;;7.30;99.90;;;;;;4954145;28;20047;-79
2024/01/01 07:24:39;;;;;;;9.80;2.83;;;7.30;99.90;;;;;;4955386;28;20447;-77
2024/01/01 07:27:06;;;;;;;9.30;2.88;;;7.30;99.90;;;;;;4954896;29;20097;-77
2024/01/01 07:29:31;;;;;;;12.10;2.85;;;7.30;99.90;;;;;;4953752;29;20130;-77
2024/01/01 07:31:57;;;;;;;10.93;2.75;;;7.40;99.90;;;;;;4955275;28;20114;-78
2024/01/01 07:34:24;;;;;;;20.05;3.33;;;7.30;99.90;;;;;;4954124;28;20043;-79
2024/01/01 07:36:51;;;;;;;16.10;3.80;;;7.30;99.90;;;;;;4953764;28;20043;-81
2024/01/01 07:39:19;;;;;;;14.10;3.72;;;7.30;99.90;;;;;;4955274;28;20111;-80
2024/01/01 07:41:47;;;;;;;15.85;4.72;;;7.30;99.90;;;;;;4955474;28;20035;-80
2024/01/01 07:44:14;;;;;;;19.75;3.90;;;7.30;99.90;;;;;;4955056;28;20092;-79
2024/01/01 07:46:39;;;;;;;21.02;4.60;;;7.30;99.90;;;;;;4955194;28;20043;-79
2024/01/01 07:49:06;;;;;;;15.93;4.85;;;7.30;99.90;;;;;;4955254;28;20046;-80
2024/01/01 07:51:33;;;;;;;18.88;5.50;;;7.30;99.90;;;;;;4954943;28;20043;-81
2024/01/01 07:53:59;;;;;;;9.02;2.58;;;7.30;99.90;;;;;;4955165;28;20039;-80
2024/01/01 07:56:26;;;;;;;6.38;1.58;;;7.10;99.90;;;;;;4955125;28;20050;-78
2024/01/01 07:58:53;;;;;;;5.20;0.95;;;7.00;99.90;;;;;;4955896;28;20108;-78
2024/01/01 08:01:19;;;;;;;5.75;1.48;;;6.80;99.90;;;;;;4954687;28;20047;-79
2024/01/01 08:03:45;;;;;;;7.20;0.98;;;6.80;99.90;;;;;;4954912;28;20118;-76
2024/01/01 08:06:11;;;;;;;3.70;1.00;;;6.70;99.90;;;;;;4955090;28;20142;-80
2024/01/01 08:08:36;;;;;;;7.25;1.10;;;6.60;99.90;;;;;;4953552;29;20471;-79
2024/01/01 08:11:02;;;;;;;11.93;2.42;;;6.60;99.90;;;;;;4954771;28;20115;-81
2024/01/01 08:13:28;;;;;;;15.20;3.97;;;6.70;99.90;;;;;;4955330;29;20031;-79
2024/01/01 08:15:53;;;;;;;13.40;3.05;;;6.90;99.90;;;;;;4954885;28;20042;-78
2024/01/01 08:18:19;;;;;;;14.27;3.88;;;7.00;99.90;;;;;;4953401;29;20115;-80
2024/01/01 08:20:45;;;;;;;17.95;3.83;;;7.20;99.90;;;;;;4954942;28;20130;-79
2024/01/01 08:23:10;;;;;;;13.73;3.55;;;7.30;99.90;;;;;;4957007;28;20083;-78
2024/01/01 08:25:37;;;;;;;16.30;3.60;;;7.40;99.90;;;;;;4958499;28;20086;-78
2024/01/01 08:28:02;;;;;;;16.20;3.35;;;7.40;99.90;;;;;;4958290;28;20554;-81
2024/01/01 08:30:28;;;;;;;17.40;3.35;;;7.40;99.90;;;;;;4958249;28;20051;-78
2024/01/01 08:32:54;;;;;;;11.85;2.55;;;7.40;99.90;;;;;;4958323;28;20039;-78
2024/01/01 08:35:20;;;;;;;20.08;3.67;;;7.40;99.90;;;;;;4958447;28;20067;-80
2024/01/01 08:37:47;;;;;;;17.23;3.30;;;7.50;99.90;;;;;;4958170;28;20040;-76
2024/01/01 08:40:13;;;;;;;16.10;4.25;;;7.40;99.90;;;;;;4958577;28;20070;-80
2024/01/01 08:42:39;;;;;;;17.27;3.17;;;7.50;99.90;;;;;;4956927;28;20483;-79
2024/01/01 08:45:05;;;;;;;12.25;2.33;;;7.40;99.90;;;;;;4956639;28;20419;-80
2024/01/01 08:47:31;;;;;;;16.20;2.75;;;7.50;99.90;;;;;;4958252;28;20049;-81
2024/01/01 08:49:56;;;;;;;14.77;3.55;;;7.50;99.90;;;;;;4958136;28;20039;-76
2024/01/01 08:52:22;;;;;;;16.70;2.78;;;7.50;99.90;;;;;;4956846;28;20039;-79
2024/01/01 08:54:48;;;;;;;17.50;3.65;;;7.50;99.90;;;;;;4956365;28;20054;-80
2024/01/01 08:57:15;;;;;;;14.48;3.65;;;7.50;99.90;;;;;;4956611;29;20078;-78
2024/01/01 08:59:41;;;;;;;14.82;2.63;;;7.50;99.90;;;;;;4957809;28;20114;-80
2024/01/01 09:02:07;;;;;;;12.30;2.92;;;7.50;99.90;;;;;;4956504;28;20400;-78
2024/01/01 09:04:33;;;;;;;15.18;2.42;;;7.50;99.90;;;;;;4940634;29;20400;-78
2024/01/01 09:07:03;;;;;;;17.00;2.92;;;7.50;99.90;;;;;;4957808;28;20058;-78
2024/01/01 09:09:31;;;;;;;10.60;2.38;;;7.50;99.90;;;;;;4956382;29;20506;-77
2024/01/01 09:11:57;;;;;;;12.27;3.67;;;7.50;99.90;;;;;;4956005;28;20043;-79
2024/01/01 09:14:23;;;;;;;14.52;2.65;;;7.40;99.90;;;;;;4958113;29;20039;-80
2024/01/01 09:16:50;;;;;;;11.27;2.10;;;7.50;99.90;;;;;;4957359;29;20071;-79
2024/01/01 09:19:16;;;;;;;10.77;2.10;;;7.50;99.90;;;;;;4957607;28;20052;-78
2024/01/01 09:21:42;;;;;;;11.55;2.35;;;7.50;99.90;;;;;;4957453;28;20044;-81
2024/01/01 09:24:09;;;;;;;9.60;2.17;;;7.40;99.90;;;;;;4956041;28;20421;-79
2024/01/01 09:26:40;;;;;;;20.08;2.70;;;7.50;99.90;;;;;;4957240;28;20054;-80
2024/01/01 09:29:05;;;;;;;10.20;2.25;;;7.50;99.90;;;;;;4957302;29;20046;-77
2024/01/01 09:31:32;;;;;;;15.25;3.35;;;7.60;99.90;;;;;;4957061;28;20039;-80
2024/01/01 09:34:00;;;;;;;18.45;3.63;;;7.60;99.90;;;;;;4954955;28;20047;-81
2024/01/01 09:36:29;;;;;;;14.52;2.55;;;7.70;99.90;;;;;;4957180;28;20043;-81
2024/01/01 09:38:55;;;;;;;15.30;3.28;;;7.70;99.90;;;;;;4956091;29;20053;-81
2024/01/01 09:41:25;;;;;;;14.57;2.60;;;7.70;99.90;;;;;;4955640;29;20058;-81
2024/01/01 09:43:52;;;;;;;9.88;2.25;;;7.70;99.90;;;;;;4955724;28;20043;-82
2024/01/01 09:46:18;;;;;;;10.52;2.33;;;7.60;99.90;;;;;;4957005;28;20483;-79
2024/01/01 09:48:45;;;;;;;11.27;2.22;;;7.60;99.90;;;;;;4939511;29;20054;-79
2024/01/01 09:51:10;;;;;;;13.55;2.38;;;7.60;99.90;;;;;;4939620;29;20542;-82
2024/01/01 09:53:36;;;;;;;12.55;2.88;;;7.70;99.90;;;;;;4939603;29;20051;-81
2024/01/01 09:56:02;;;;;;;11.10;2.17;;;7.70;99.90;;;;;;4939508;29;20039;-79
2024/01/01 09:58:28;;;;;;;16.38;2.30;;;7.80;99.90;;;;;;4956542;28;20036;-78
2024/01/01 10:01:19;;;;;;;11.68;1.50;;;7.80;99.90;;;;;;4955009;29;20090;-78
2024/01/01 10:04:03;;;;;;;12.52;2.17;;;7.80;99.90;;;;;;4939333;29;20125;-78
2024/01/01 10:06:30;;;;;;;3.58;1.38;;;7.90;99.90;;;;;;4955130;29;20039;-77
2024/01/01 10:09:09;;;;;;;11.75;2.30;;;7.90;99.90;;;;;;4956636;28;20054;-77
2024/01/01 10:11:41;;;;;;;10.65;1.95;;;8.00;99.90;;;;;;4956759;28;20048;-85
2024/01/01 10:14:26;;;;;;;12.13;2.38;;;8.00;99.90;;;;;;4954436;29;20043;-81
2024/01/01 10:16:51;;;;;;;16.95;2.38;;;8.10;99.90;;;;;;4956331;28;20067;-79
2024/01/01 10:19:17;;;;;;;12.25;2.05;;;8.10;99.90;;;;;;4937757;28;20500;-78
2024/01/01 10:21:43;;;;;;;13.73;2.50;;;8.30;99.90;;;;;;4937057;29;20040;-78
2024/01/01 10:24:16;;;;;;;14.48;2.10;;;8.40;99.90;;;;;;4937538;29;20043;-81
2024/01/01 10:26:48;;;;;;;15.23;1.77;;;8.40;99.90;;;;;;4939821;29;20043;-76
2024/01/01 10:29:17;;;;;;;11.25;2.33;;;8.40;99.90;;;;;;4947465;29;20396;-76
2024/01/01 10:31:48;;;;;;;7.03;1.60;;;8.30;99.90;;;;;;4958727;28;20130;-79
2024/01/01 10:34:15;;;;;;;10.52;2.45;;;8.30;99.90;;;;;;4941360;29;20568;-81
2024/01/01 10:36:44;;;;;;;9.40;1.30;;;8.30;99.90;;;;;;4952834;29;20071;-80
2024/01/01 10:39:11;;;;;;;11.25;1.98;;;8.30;99.90;;;;;;4949965;28;20110;-76
2024/01/01 10:41:38;;;;;;;12.82;2.25;;;8.30;99.90;;;;;;4937025;29;20090;-82
2024/01/01 10:44:08;;;;;;;18.85;3.38;;;8.30;99.90;;;;;;4936953;29;20416;-79
2024/01/01 10:46:37;;;;;;;16.35;2.22;;;8.40;99.90;;;;;;4937095;29;20089;-81
2024/01/01 10:49:11;;;;;;;14.00;2.20;;;8.40;99.90;;;;;;4936709;29;20402;-80
2024/01/01 10:51:42;;;;;;;22.00;2.47;;;8.40;99.90;;;;;;4935997;29;20110;-81
2024/01/01 10:54:24;;;;;;;16.15;1.92;;;8.40;99.90;;;;;;4936878;29;20485;-82
2024/01/01 10:57:13;;;;;;;8.82;2.10;;;8.40;99.90;;;;;;4936814;29;20086;-81
2024/01/01 10:59:49;;;;;;;15.63;2.30;;;8.40;99.90;;;;;;4935103;29;20126;-81
2024/01/01 11:02:16;;;;;;;17.20;2.40;;;8.50;99.90;;;;;;4936233;29;20480;-80
2024/01/01 11:04:41;;;;;;;12.43;2.42;;;8.50;99.90;;;;;;4936400;29;20102;-79
2024/01/01 11:07:07;;;;;;;11.30;2.08;;;8.60;99.90;;;;;;4941642;29;20039;-80
2024/01/01 11:09:34;;;;;;;9.70;1.70;;;8.60;99.90;;;;;;4954748;28;20070;-82
2024/01/01 11:12:02;;;;;;;16.30;2.58;;;8.60;99.90;;;;;;4955536;28;20043;-81
2024/01/01 11:14:34;;;;;;;11.95;1.80;;;8.70;99.90;;;;;;4954370;29;20568;-81
2024/01/01 11:17:02;;;;;;;10.63;2.08;;;8.70;99.90;;;;;;4954146;28;20074;-81
2024/01/01 11:19:46;;;;;;;17.02;2.30;;;8.80;99.90;;;;;;4954365;28;20046;-78
2024/01/01 11:22:28;;;;;;;8.35;1.70;;;8.80;99.90;;;;;;4954173;29;20495;-81
2024/01/01 11:24:54;;;;;;;12.73;1.70;;;8.70;99.90;;;;;;4942324;29;20087;-78
2024/01/01 11:27:25;;;;;;;12.82;1.98;;;8.70;99.90;;;;;;4919655;29;20102;-82
2024/01/01 11:29:51;;;;;;;14.68;2.50;;;8.70;99.90;;;;;;4934912;29;20040;-80
2024/01/01 11:32:20;;;;;;;12.95;1.70;;;8.80;99.90;;;;;;4935266;29;20127;-79
2024/01/01 11:35:05;;;;;;;9.60;2.40;;;8.80;99.90;;;;;;4935054;29;20470;-81
2024/01/01 11:37:31;;;;;;;;;;;8.80;99.90;;;;;;4954459;29;20040;-79
2024/01/01 11:39:58;;;;;;;9.88;1.63;;;8.80;99.90;;;;;;4953609;28;19919;-79
2024/01/01 11:42:23;;;;;;;10.75;1.75;;;8.80;99.90;;;;;;4938300;29;20048;-75
2024/01/01 11:44:49;;;;;;;10.70;1.75;;;8.80;99.90;;;;;;4934341;29;20048;-80
2024/01/01 11:47:18;;;;;;;8.00;1.40;;;8.70;99.90;;;;;;4933486;29;20364;-78
2024/01/01 11:49:52;;;;;;;9.48;1.77;;;8.60;99.90;;;;;;4935429;29;20040;-80
2024/01/01 11:52:18;;;;;;;8.20;1.90;;;8.60;99.90;;;;;;4934337;29;20059;-80
2024/01/01 11:54:48;;;;;;;9.23;1.45;;;8.60;99.90;;;;;;4934899;29;20043;-79
2024/01/01 11:57:13;;;;;;;9.35;1.92;;;8.50;99.90;;;;;;4938929;29;20063;-81
2024/01/01 11:59:39;;;;;;;9.68;1.70;;;8.50;99.90;;;;;;4939454;29;20040;-79
2024/01/01 12:02:06;;;;;;;11.60;1.92;;;8.50;99.90;;;;;;4942027;29;20083;-79
2024/01/01 12:04:32;;;;;;;11.85;2.28;;;8.40;99.90;;;;;;4938145;29;20484;-81
2024/01/01 12:06:58;;;;;;;14.95;1.98;;;8.40;99.90;;;;;;4950410;28;20126;-81
2024/01/01 12:09:24;;;;;;;10.82;1.17;;;8.30;99.90;;;;;;4957701;28;20082;-79
2024/01/01 12:11:50;;;;;;;8.02;1.80;;;8.40;99.90;;;;;;4947005;28;20102;-77
2024/01/01 12:14:25;;;;;;;9.20;1.70;;;8.30;99.90;;;;;;4938146;29;20044;-77
2024/01/01 12:16:51;;;;;;;9.65;2.03;;;8.30;99.90;;;;;;4938338;29;20483;-81
2024/01/01 12:19:22;;;;;;;6.50;1.42;;;8.40;99.90;;;;;;4937299;29;20039;-77
2024/01/01 12:21:49;;;;;;;6.07;1.20;;;8.30;99.90;;;;;;4938243;29;20052;-78
2024/01/01 12:24:21;;;;;;;10.32;1.60;;;8.40;99.90;;;;;;4937950;29;20054;-81
2024/01/01 12:26:50;;;;;;;10.70;1.30;;;8.20;99.90;;;;;;4946565;29;20039;-80
2024/01/01 12:29:19;;;;;;;9.73;1.60;;;8.10;99.90;;;;;;4957064;29;20044;-79
2024/01/01 12:31:45;;;;;;;12.77;2.22;;;8.20;99.90;;;;;;4947038;29;20079;-79
2024/01/01 12:34:19;;;;;;;9.85;2.10;;;8.20;99.90;;;;;;4922512;29;20040;-80
2024/01/01 12:36:47;;;;;;;8.32;1.25;;;8.30;99.90;;;;;;4937184;29;20055;-76
2024/01/01 12:39:17;;;;;;;13.07;1.42;;;8.30;99.90;;;;;;4921819;29;20492;-80
2024/01/01 12:41:43;;;;;;;12.80;2.83;;;8.40;99.90;;;;;;4954613;29;20035;-80
2024/01/01 12:44:09;;;;;;;12.60;2.08;;;8.40;99.90;;;;;;4958001;28;20051;-76
2024/01/01 12:46:48;;;;;;;10.50;1.52;;;8.50;99.90;;;;;;4942634;28;20039;-83
2024/01/01 12:49:14;;;;;;;6.10;1.52;;;8.50;99.90;;;;;;4898645;29;20134;-77
2024/01/01 12:51:39;;;;;;;11.68;1.45;;;8.50;99.90;;;;;;4937534;29;20174;-80
2024/01/01 12:54:05;;;;;;;10.20;1.38;;;8.50;99.90;;;;;;4937981;29;20036;-77
2024/01/01 12:56:32;;;;;;;9.10;1.65;;;8.50;99.90;;;;;;4951582;29;20059;-79
2024/01/01 12:58:58;;;;;;;6.20;1.27;;;8.50;99.90;;;;;;4948911;29;20043;-82
2024/01/01 13:01:24;;;;;;;9.20;1.88;;;8.60;99.90;;;;;;4943031;29;20098;-81
2024/01/01 13:03:49;;;;;;;13.98;1.70;;;8.60;99.90;;;;;;4958827;28;20130;-77
2024/01/01 13:06:17;;;;;;;13.07;1.65;;;8.60;99.90;;;;;;4950576;28;20538;-80
2024/01/01 13:08:45;;;;;;;11.05;1.60;;;8.60;99.90;;;;;;4937692;29;20052;-80
2024/01/01 13:11:11;;;;;;;11.40;1.75;;;8.60;99.90;;;;;;4939685;29;20578;-79
2024/01/01 13:13:37;;;;;;;13.80;2.15;;;8.60;99.90;;;;;;4937374;29;20130;-78
2024/01/01 13:16:03;;;;;;;16.38;2.15;;;8.50;99.90;;;;;;4947390;29;20122;-78
2024/01/01 13:18:29;;;;;;;9.10;2.00;;;8.50;99.90;;;;;;4952797;28;20480;-76
2024/01/01 13:20:57;;;;;;;12.07;2.65;;;8.40;99.90;;;;;;4937100;29;20044;-79
2024/01/01 13:23:22;;;;;;;12.60;2.38;;;8.30;99.90;;;;;;4921322;29;20137;-76
2024/01/01 13:25:48;;;;;;;9.20;1.58;;;8.30;99.90;;;;;;4945895;29;20452;-80
2024/01/01 13:28:19;;;;;;;12.93;1.85;;;8.30;99.90;;;;;;4956227;29;20055;-77
2024/01/01 13:30:45;;;;;;;17.60;2.20;;;8.30;99.90;;;;;;4957297;28;20046;-78
2024/01/01 13:33:11;;;;;;;8.60;1.42;;;8.30;99.90;;;;;;4945614;28;20044;-81
2024/01/01 13:35:40;;;;;;;10.30;1.88;;;8.30;99.90;;;;;;4937128;29;20078;-81
2024/01/01 13:38:09;;;;;;;14.32;2.33;;;8.30;99.90;;;;;;4937004;29;20154;-78
2024/01/01 13:40:36;;;;;;;9.60;1.60;;;8.30;99.90;;;;;;4938707;29;20062;-82
2024/01/01 13:43:03;;;;;;;7.50;2.00;;;8.30;99.90;;;;;;4920730;29;20084;-78
2024/01/01 13:45:28;;;;;;;12.07;1.88;;;8.30;99.90;;;;;;4936791;29;20039;-79
2024/01/01 13:47:54;;;;;;;8.32;2.03;;;8.20;99.90;;;;;;4936476;29;20078;-79
2024/01/01 13:50:20;;;;;;;11.80;2.03;;;8.10;99.90;;;;;;4935893;29;20050;-79
2024/01/01 13:52:47;;;;;;;12.18;1.95;;;8.00;99.90;;;;;;4918908;29;20488;-79
2024/01/01 13:55:16;;;;;;;17.30;2.22;;;8.00;99.90;;;;;;4936823;29;20118;-79
2024/01/01 13:57:45;;;;;;;7.30;1.67;;;8.00;99.90;;;;;;4936372;29;20044;-83
2024/01/01 14:00:11;;;;;;;11.35;2.25;;;8.00;99.90;;;;;;4937655;29;20483;-81
2024/01/01 14:02:38;;;;;;;15.07;2.40;;;8.10;99.90;;;;;;4937957;29;20051;-82
2024/01/01 14:05:04;;;;;;;19.33;4.80;;;8.10;99.90;;;;;;4943439;28;20066;-79
2024/01/01 14:07:36;;;;;;;12.70;1.95;;;8.20;99.90;;;;;;4956020;28;20047;-80
2024/01/01 14:10:03;;;;;;;14.32;2.72;;;8.20;99.90;;;;;;4957139;28;20106;-81
2024/01/01 14:12:28;;;;;;;10.13;2.78;;;8.20;99.90;;;;;;4957021;28;20043;-79
2024/01/01 14:14:54;;;;;;;15.98;3.13;;;8.20;99.90;;;;;;4955299;28;20097;-79
2024/01/01 14:17:20;;;;;;;16.00;3.58;;;8.20;99.90;;;;;;4956054;28;20043;-81
2024/01/01 14:19:46;;;;;;;9.73;1.48;;;8.30;99.90;;;;;;4955358;28;20050;-79
2024/01/01 14:22:12;;;;;;;13.52;1.80;;;8.40;99.90;;;;;;4940163;28;20047;-83
2024/01/01 14:24:38;;;;;;;16.20;2.95;;;8.60;99.90;;;;;;4937762;29;20043;-80
2024/01/01 14:27:09;;;;;;;15.77;4.00;;;8.70;99.90;;;;;;4953079;29;20399;-82
2024/01/01 14:29:38;;;;;;;12.95;2.50;;;8.70;99.90;;;;;;4956695;28;20050;-80
2024/01/01 14:32:04;;;;;;;5.78;1.63;;;8.70;99.90;;;;;;4939559;29;20197;-82
2024/01/01 14:34:33;;;;;;;11.15;2.53;;;8.70;99.90;;;;;;4938085;28;20044;-81
2024/01/01 14:37:01;;;;;;;12.98;2.60;;;8.60;99.90;;;;;;4936742;29;20041;-80
2024/01/01 14:39:27;;;;;;;9.70;2.13;;;8.60;99.90;;;;;;4935935;29;20496;-80
2024/01/01 14:41:53;;;;;;;21.42;2.70;;;8.50;99.90;;;;;;4935521;29;20049;-81
2024/01/01 14:44:19;;;;;;;13.00;2.28;;;8.50;99.90;;;;;;4937202;29;20428;-77
2024/01/01 14:46:46;;;;;;;8.27;1.52;;;8.50;99.90;;;;;;4948499;29;20043;-79
2024/01/01 14:49:11;;;;;;;11.70;2.42;;;8.50;99.90;;;;;;4938584;29;20043;-84
2024/01/01 14:51:42;;;;;;;10.32;2.55;;;8.40;99.90;;;;;;4948400;29;20071;-79
2024/01/01 14:54:08;;;;;;;9.43;1.83;;;8.40;99.90;;;;;;4949592;28;20117;-82
2024/01/01 14:56:38;;;;;;;13.68;1.80;;;8.40;99.90;;;;;;4950304;28;20138;-83
2024/01/01 14:59:03;;;;;;;13.10;2.00;;;8.30;99.90;;;;;;4935520;29;20043;-81
2024/01/01 15:01:30;;;;;;;14.32;1.98;;;8.30;99.90;;;;;;4934997;29;20047;-81
2024/01/01 15:03:56;;;;;;;10.55;2.08;;;8.30;99.90;;;;;;4935128;29;20048;-80
2024/01/01 15:06:22;;;;;;;12.18;2.05;;;8.30;99.90;;;;;;4934592;29;20066;-81
2024/01/01 15:08:48;;;;;;;9.30;1.77;;;8.30;99.90;;;;;;4934121;29;20056;-79
2024/01/01 15:11:13;;;;;;;15.52;2.05;;;8.20;99.90;;;;;;4936735;29;20381;-79
2024/01/01 15:13:39;;;;;;;11.10;1.60;;;8.20;99.90;;;;;;4936763;29;20480;-82
2024/01/01 15:16:05;;;;;;;14.13;2.28;;;8.10;99.90;;;;;;4936534;29;20043;-81
2024/01/01 15:18:31;;;;;;;12.20;1.58;;;8.20;99.90;;;;;;4935112;29;20047;-81
2024/01/01 15:20:56;;;;;;;10.57;2.10;;;8.10;99.90;;;;;;4936456;29;20171;-82
2024/01/01 15:23:22;;;;;;;12.38;2.47;;;8.10;99.90;;;;;;4935399;29;20392;-79
2024/01/01 15:25:48;;;;;;;15.25;1.90;;;8.10;99.90;;;;;;4934823;29;20487;-79
2024/01/01 15:28:16;;;;;;;9.77;1.83;;;8.00;99.90;;;;;;4936099;29;20039;-81
2024/01/01 15:30:42;;;;;;;9.88;1.75;;;8.00;99.90;;;;;;4935870;29;20051;-78
2024/01/01 15:33:09;;;;;;;15.18;1.88;;;8.00;99.90;;;;;;4936887;29;20046;-79
2024/01/01 15:35:34;;;;;;;10.52;2.60;;;8.00;99.90;;;;;;4942130;29;20036;-75
2024/01/01 15:38:00;;;;;;;12.10;2.08;;;8.00;99.90;;;;;;4943349;29;20183;-75
2024/01/01 15:40:26;;;;;;;11.35;1.95;;;7.90;99.90;;;;;;4939840;29;20051;-78
2024/01/01 15:42:53;;;;;;;10.52;2.10;;;7.90;99.90;;;;;;4937297;29;20073;-81
2024/01/01 15:45:22;;;;;;;13.13;1.90;;;7.90;99.90;;;;;;4935454;29;20051;-78
2024/01/01 15:47:48;;;;;;;12.90;1.90;;;8.00;99.90;;;;;;4936230;29;20083;-80
2024/01/01 15:50:14;;;;;;;10.00;2.00;;;7.90;99.90;;;;;;4936467;29;20400;-84
2024/01/01 15:52:41;;;;;;;12.13;2.65;;;8.00;99.90;;;;;;4936492;29;20157;-78
2024/01/01 15:55:08;;;;;;;8.02;2.00;;;8.00;99.90;;;;;;4936223;29;20099;-81
2024/01/01 15:57:33;;;;;;;8.82;2.25;;;7.90;99.90;;;;;;4934992;29;20043;-78
2024/01/01 15:59:59;;;;;;;10.23;2.45;;;7.90;99.90;;;;;;4936316;29;20044;-81
2024/01/01 16:02:26;;;;;;;14.30;1.77;;;8.00;99.90;;;;;;4935711;29;20043;-82
2024/01/01 16:04:52;;;;;;;12.57;3.05;;;7.90;99.90;;;;;;4934692;29;20052;-78
2024/01/01 16:07:17;;;;;;;12.00;2.25;;;7.90;99.90;;;;;;4934538;29;20072;-81
2024/01/01 16:09:43;;;;;;;14.57;2.20;;;8.00;99.90;;;;;;4935661;29;20111;-79
2024/01/01 16:12:09;;;;;;;14.65;2.70;;;7.80;99.90;;;;;;4936212;29;20082;-80
2024/01/01 16:14:35;;;;;;;12.77;2.30;;;7.80;99.90;;;;;;4935592;29;20480;-79
2024/01/01 16:17:04;;;;;;;10.13;2.33;;;7.80;99.90;;;;;;4936339;29;20039;-83
2024/01/01 16:19:30;;;;;;;16.35;2.28;;;7.70;99.90;;;;;;4935981;29;20161;-78
2024/01/01 16:21:56;;;;;;;11.63;2.08;;;7.60;99.90;;;;;;4934413;29;20061;-79
2024/01/01 16:24:25;;;;;;;13.90;2.53;;;7.60;99.90;;;;;;4936927;29;20057;-82
2024/01/01 16:26:52;;;;;;;15.70;2.08;;;7.50;99.90;;;;;;4934667;29;20119;-76
2024/01/01 16:29:17;;;;;;;10.20;1.80;;;7.50;99.90;;;;;;4935568;29;20500;-79
2024/01/01 16:31:43;;;;;;;12.88;1.95;;;7.50;99.90;;;;;;4935724;29;20126;-78
2024/01/01 16:34:09;;;;;;;13.10;2.13;;;7.40;99.90;;;;;;4934657;29;20535;-80
2024/01/01 16:36:34;;;;;;;8.93;2.35;;;7.40;99.90;;;;;;4935862;29;20071;-80
2024/01/01 16:39:02;;;;;;;14.90;2.60;;;7.30;99.90;;;;;;4935837;29;20040;-78
2024/01/01 16:41:28;;;;;;;13.23;2.38;;;7.30;99.90;;;;;;4934314;29;20055;-78
2024/01/01 16:43:54;;;;;;;11.63;2.15;;;7.30;99.90;;;;;;4939263;29;20377;-77
2024/01/01 16:46:21;;;;;;;17.50;3.33;;;7.20;99.90;;;;;;4939834;29;20082;-77
2024/01/01 16:48:47;;;;;;;12.73;2.47;;;7.10;99.90;;;;;;4939012;29;20052;-78